Alvin, Wisconsin
Current Conditions -  °F | °C
As of 4:35 PM on Monday 24 Nov 2014 (Local Time) from KEGV Reporting Station
Moderate Snow Moderate Snow  
Wind Chill:   Ceiling: 1000
Heat Index: 23°   Visibility: 0.75mi
Dew Point: 21°   Wind: 18mph
Humidity: 93%   Direction: 340°NNW
Pressure: 29.34"   Gusts: 22mph
Location:  45.9186°N, 88.7601°W
Report Text: KEGV 242235Z AUTO 34016G19KT 3/4SM SN BKN010 M05/M06 A2934 RMK AO2 T10511061
Loading
Personal Weather Stations






























Interactive Weather Map New forecast layout! Learn more

10-Day Weather Forecast

Advertisements
Track Severe Weather on mobile